Time;durP1;ratioP1;P1;durP2;ratioP2;P2;SDS_P1;SDS_P2;PMS_P1;PMS_P2;Temp;Humidity;BMP_temperature;BMP_pressure;BME280_temperature;BME280_humidity;BME280_pressure;Samples;Min_cycle;Max_cycle;Signal;HPM_P1;HPM_P2
2021/01/21 00:01:45;;;;;;;32.28;14.10;;;8.30;99.90;;;;;;5080108;28;20029;-61
2021/01/21 00:04:11;;;;;;;28.38;13.75;;;8.20;99.90;;;;;;5077673;28;20055;-62
2021/01/21 00:06:39;;;;;;;28.40;13.02;;;8.20;99.90;;;;;;5083368;28;20030;-62
2021/01/21 00:09:05;;;;;;;33.45;13.82;;;8.20;99.90;;;;;;5087074;28;20031;-62
2021/01/21 00:11:30;;;;;;;34.05;14.43;;;8.00;99.90;;;;;;5081237;28;20024;-62
2021/01/21 00:13:56;;;;;;;33.63;15.00;;;8.00;99.90;;;;;;5074588;28;20414;-62
2021/01/21 00:16:22;;;;;;;32.15;15.18;;;7.90;99.90;;;;;;5080579;28;20027;-62
2021/01/21 00:18:48;;;;;;;34.05;14.82;;;7.90;99.90;;;;;;5074406;28;20031;-62
2021/01/21 00:21:13;;;;;;;40.33;16.63;;;7.90;99.90;;;;;;5080576;28;20056;-62
2021/01/21 00:23:39;;;;;;;31.48;14.80;;;8.00;99.90;;;;;;5074421;28;20059;-61
2021/01/21 00:26:05;;;;;;;35.83;14.98;;;8.00;99.90;;;;;;5080559;28;20028;-62
2021/01/21 00:28:30;;;;;;;31.08;15.98;;;7.80;99.90;;;;;;5072353;28;20060;-62
2021/01/21 00:30:56;;;;;;;29.52;14.00;;;7.80;99.90;;;;;;5081822;28;20029;-62
2021/01/21 00:33:22;;;;;;;33.92;14.40;;;7.70;99.90;;;;;;5072050;28;20044;-62
2021/01/21 00:35:48;;;;;;;36.53;14.65;;;7.50;99.90;;;;;;5082214;28;20021;-62
2021/01/21 00:38:13;;;;;;;29.65;13.85;;;7.70;99.90;;;;;;5071511;28;20040;-61
2021/01/21 00:40:39;;;;;;;35.75;15.38;;;7.80;99.90;;;;;;5070138;28;20079;-61
2021/01/21 00:43:05;;;;;;;33.70;15.10;;;7.70;99.90;;;;;;5071921;28;20032;-62
2021/01/21 00:45:30;;;;;;;28.60;14.65;;;7.70;99.90;;;;;;5082404;28;20488;-62
2021/01/21 00:47:56;;;;;;;35.85;15.45;;;7.70;99.90;;;;;;5071612;28;20028;-62
2021/01/21 00:50:22;;;;;;;47.15;17.02;;;7.70;99.90;;;;;;5082576;28;20536;-61
2021/01/21 00:52:48;;;;;;;44.22;16.27;;;7.60;99.90;;;;;;5071331;28;20017;-62
2021/01/21 00:55:13;;;;;;;37.75;14.98;;;7.70;99.90;;;;;;5081849;28;20028;-62
2021/01/21 00:57:39;;;;;;;35.33;15.90;;;7.70;99.90;;;;;;5071684;28;20033;-61
2021/01/21 01:00:07;;;;;;;31.13;14.20;;;7.60;99.90;;;;;;5081175;28;20602;-61
2021/01/21 01:02:33;;;;;;;36.80;16.30;;;7.50;99.90;;;;;;5092763;28;20024;-61
2021/01/21 01:04:59;;;;;;;25.33;13.93;;;7.40;99.90;;;;;;5084478;28;20047;-62
2021/01/21 01:07:24;;;;;;;28.45;13.38;;;7.50;99.90;;;;;;5073598;28;20028;-62
2021/01/21 01:09:50;;;;;;;29.80;14.55;;;7.60;99.90;;;;;;5078488;28;20099;-62
2021/01/21 01:12:16;;;;;;;38.10;14.52;;;7.70;99.90;;;;;;5074775;28;20063;-61
2021/01/21 01:14:41;;;;;;;35.47;14.90;;;7.70;99.90;;;;;;5077399;28;20245;-62
2021/01/21 01:17:07;;;;;;;32.50;14.93;;;7.80;99.90;;;;;;5075744;28;20389;-62
2021/01/21 01:19:32;;;;;;;34.38;15.93;;;7.80;99.90;;;;;;5076082;28;20641;-63
2021/01/21 01:21:58;;;;;;;31.48;15.45;;;7.70;99.90;;;;;;5084810;28;20434;-62
2021/01/21 01:24:24;;;;;;;31.42;15.02;;;7.70;99.90;;;;;;5085850;28;20495;-62
2021/01/21 01:26:49;;;;;;;36.10;15.70;;;7.70;99.90;;;;;;5083581;28;20024;-62
2021/01/21 01:29:16;;;;;;;31.33;14.35;;;7.80;99.90;;;;;;5084546;28;20020;-62
2021/01/21 01:31:41;;;;;;;34.17;14.93;;;7.70;99.90;;;;;;5079197;28;20028;-61
2021/01/21 01:34:07;;;;;;;39.80;14.77;;;7.70;99.90;;;;;;5054789;28;20541;-62
2021/01/21 01:36:32;;;;;;;28.80;14.18;;;7.60;99.90;;;;;;5079022;28;20430;-62
2021/01/21 01:38:58;;;;;;;29.70;14.60;;;7.60;99.90;;;;;;5073055;28;20020;-62
2021/01/21 01:41:27;;;;;;;38.25;14.80;;;7.70;99.90;;;;;;5078358;28;20027;-61
2021/01/21 01:43:53;;;;;;;37.80;16.25;;;7.70;99.90;;;;;;5072862;28;20016;-62
2021/01/21 01:46:19;;;;;;;34.13;13.98;;;7.70;99.90;;;;;;5079225;28;20177;-61
2021/01/21 01:48:45;;;;;;;31.67;14.80;;;7.70;99.90;;;;;;5072787;28;20016;-62
2021/01/21 01:51:10;;;;;;;33.67;15.43;;;7.70;99.90;;;;;;5078938;28;20024;-62
2021/01/21 01:53:36;;;;;;;42.58;20.75;;;7.60;99.90;;;;;;5071937;28;20028;-62
2021/01/21 01:56:02;;;;;;;48.22;17.23;;;7.50;99.90;;;;;;5079679;28;20028;-62
2021/01/21 01:58:30;;;;;;;35.72;16.65;;;7.60;99.90;;;;;;5070902;28;20162;-62
2021/01/21 02:00:57;;;;;;;38.67;14.85;;;7.60;99.90;;;;;;5080430;28;20021;-61
2021/01/21 02:03:23;;;;;;;41.80;15.30;;;7.60;99.90;;;;;;5070657;28;20127;-62
2021/01/21 02:05:49;;;;;;;36.15;14.75;;;7.70;99.90;;;;;;5068577;28;20234;-61
2021/01/21 02:08:16;;;;;;;34.20;14.63;;;7.70;99.90;;;;;;5070972;28;20028;-62
2021/01/21 02:10:42;;;;;;;31.55;14.35;;;7.80;99.90;;;;;;5081310;28;20358;-62
2021/01/21 02:13:18;;;;;;;36.75;14.10;;;7.60;99.90;;;;;;5070234;28;20021;-62
2021/01/21 02:16:02;;;;;;;;;;;7.60;99.90;;;;;;5079149;28;20024;-62
2021/01/21 02:18:56;;;;;;;30.85;14.25;;;7.60;99.90;;;;;;5088168;28;19912;-62
2021/01/21 02:22:00;;;;;;;36.88;14.65;;;7.60;99.90;;;;;;5078767;28;20073;-62
2021/01/21 02:24:40;;;;;;;38.70;14.00;;;7.60;99.90;;;;;;5037299;28;20044;-62
2021/01/21 02:27:08;;;;;;;31.88;13.85;;;7.50;99.90;;;;;;5084889;28;20020;-62
2021/01/21 02:29:36;;;;;;;39.88;14.20;;;7.40;99.90;;;;;;5083523;28;20060;-62
2021/01/21 02:32:08;;;;;;;25.92;13.52;;;7.30;99.90;;;;;;5075780;28;20085;-62
2021/01/21 02:34:48;;;;;;;26.08;13.52;;;7.40;99.90;;;;;;5074723;28;20476;-62
2021/01/21 02:37:25;;;;;;;40.30;14.30;;;7.20;99.90;;;;;;5073572;28;20039;-62
2021/01/21 02:39:54;;;;;;;27.27;12.68;;;7.10;99.90;;;;;;5077156;28;20111;-62
2021/01/21 02:42:20;;;;;;;23.70;12.15;;;7.20;99.90;;;;;;5073365;28;20388;-62
2021/01/21 02:44:47;;;;;;;25.80;12.70;;;7.10;99.90;;;;;;5076403;28;20036;-62
2021/01/21 02:47:14;;;;;;;29.17;13.68;;;7.10;99.90;;;;;;5074036;28;20503;-63
2021/01/21 02:49:41;;;;;;;32.03;13.85;;;7.00;99.90;;;;;;5075318;28;20370;-62
2021/01/21 02:52:32;;;;;;;37.20;14.07;;;7.00;99.90;;;;;;5076836;28;20020;-63
2021/01/21 02:55:24;;;;;;;28.63;13.30;;;6.80;99.90;;;;;;5081898;28;20555;-63
2021/01/21 02:58:12;;;;;;;27.85;11.95;;;6.90;99.90;;;;;;5073571;28;20115;-63
2021/01/21 03:00:39;;;;;;;23.75;11.95;;;6.70;99.90;;;;;;5082046;28;20021;-62
2021/01/21 03:03:12;;;;;;;34.10;12.90;;;6.70;99.90;;;;;;5094106;28;20052;-62
2021/01/21 03:05:39;;;;;;;26.80;12.75;;;6.70;99.90;;;;;;5080901;28;20020;-63
2021/01/21 03:08:07;;;;;;;28.02;12.70;;;6.80;99.90;;;;;;5075444;28;20399;-63
2021/01/21 03:10:32;;;;;;;26.95;12.82;;;6.80;99.90;;;;;;5085104;28;20125;-63
2021/01/21 03:12:58;;;;;;;31.15;14.13;;;6.70;99.90;;;;;;5073417;28;20381;-63
2021/01/21 03:15:25;;;;;;;23.55;12.05;;;6.60;99.90;;;;;;5084292;28;20032;-62
2021/01/21 03:17:52;;;;;;;27.45;13.20;;;6.60;99.90;;;;;;5073014;28;20028;-62
2021/01/21 03:20:18;;;;;;;28.98;15.05;;;6.60;99.90;;;;;;5083953;28;20024;-62
2021/01/21 03:22:44;;;;;;;31.90;16.75;;;6.70;99.90;;;;;;5073250;28;20017;-63
2021/01/21 03:25:10;;;;;;;37.15;17.15;;;6.80;99.90;;;;;;5082800;28;20024;-63
2021/01/21 03:27:36;;;;;;;36.20;16.90;;;6.80;99.90;;;;;;5074313;28;20020;-63
2021/01/21 03:30:06;;;;;;;35.30;15.70;;;6.80;99.90;;;;;;5081606;28;20507;-63
2021/01/21 03:32:32;;;;;;;34.00;16.40;;;6.70;99.90;;;;;;5071642;28;20032;-63
2021/01/21 03:34:58;;;;;;;37.50;19.33;;;6.60;99.90;;;;;;5080743;28;20031;-65
2021/01/21 03:37:24;;;;;;;31.92;17.48;;;6.70;99.90;;;;;;5075746;28;20041;-62
2021/01/21 03:39:50;;;;;;;35.88;18.85;;;6.60;99.90;;;;;;5079906;28;20032;-62
2021/01/21 03:42:16;;;;;;;31.38;18.23;;;6.70;99.90;;;;;;5076833;28;20028;-63
2021/01/21 03:44:41;;;;;;;42.88;19.45;;;6.70;99.90;;;;;;5078411;28;20156;-63
2021/01/21 03:47:07;;;;;;;49.08;21.20;;;6.70;99.90;;;;;;5077924;28;20111;-63
2021/01/21 03:49:33;;;;;;;45.05;19.55;;;6.70;99.90;;;;;;5077107;28;20028;-63
2021/01/21 03:52:00;;;;;;;35.38;17.98;;;6.70;99.90;;;;;;5078916;28;20029;-63
2021/01/21 03:54:26;;;;;;;43.75;17.42;;;7.00;99.90;;;;;;5084329;28;20028;-62
2021/01/21 03:56:52;;;;;;;31.38;13.63;;;7.10;99.90;;;;;;5092017;28;20025;-63
2021/01/21 03:59:18;;;;;;;36.72;15.55;;;7.50;99.90;;;;;;5087503;28;20035;-63
2021/01/21 04:01:43;;;;;;;33.15;15.57;;;7.50;99.90;;;;;;5102153;28;20026;-63
2021/01/21 04:04:09;;;;;;;33.17;14.75;;;7.60;99.90;;;;;;5085969;28;20055;-63
2021/01/21 04:06:35;;;;;;;44.03;15.80;;;7.40;99.90;;;;;;5081078;28;20052;-63
2021/01/21 04:09:00;;;;;;;38.35;15.18;;;7.30;99.90;;;;;;5074927;28;20094;-63
2021/01/21 04:11:26;;;;;;;31.10;15.85;;;7.40;99.90;;;;;;5089992;28;20059;-63
2021/01/21 04:13:52;;;;;;;35.60;16.00;;;7.30;99.90;;;;;;5089290;28;20078;-63
2021/01/21 04:16:17;;;;;;;55.88;18.58;;;7.30;99.90;;;;;;5085409;28;20032;-63
2021/01/21 04:18:43;;;;;;;37.78;16.92;;;7.40;99.90;;;;;;5092312;28;20024;-63
2021/01/21 04:21:08;;;;;;;38.65;18.65;;;7.30;99.90;;;;;;5090695;28;20384;-63
2021/01/21 04:23:35;;;;;;;48.60;15.50;;;7.40;99.90;;;;;;5090349;28;20581;-62
2021/01/21 04:26:01;;;;;;;34.95;15.70;;;7.30;99.90;;;;;;5091628;28;20024;-62
2021/01/21 04:28:27;;;;;;;36.88;16.58;;;7.40;99.90;;;;;;5090409;28;20488;-63
2021/01/21 04:30:53;;;;;;;34.53;15.20;;;7.30;99.90;;;;;;5090918;28;20067;-62
2021/01/21 04:33:18;;;;;;;36.55;14.70;;;7.30;99.90;;;;;;5090702;28;20040;-62
2021/01/21 04:35:44;;;;;;;40.38;15.07;;;7.40;99.90;;;;;;5086721;28;20111;-63
2021/01/21 04:38:10;;;;;;;28.42;15.18;;;7.30;99.90;;;;;;5078125;28;20035;-63
2021/01/21 04:40:36;;;;;;;31.48;14.88;;;7.30;99.90;;;;;;5083247;28;20066;-63
2021/01/21 04:43:01;;;;;;;42.53;19.30;;;7.30;99.90;;;;;;5085775;28;20111;-62
2021/01/21 04:45:28;;;;;;;43.15;22.20;;;7.10;99.90;;;;;;5088431;28;20040;-62
2021/01/21 04:47:54;;;;;;;47.17;20.42;;;7.20;99.90;;;;;;5091221;28;20036;-62
2021/01/21 04:50:20;;;;;;;41.95;18.80;;;7.20;99.90;;;;;;5088209;28;20043;-62
2021/01/21 04:52:48;;;;;;;33.50;16.13;;;7.10;99.90;;;;;;5090893;28;20059;-62
2021/01/21 04:55:21;;;;;;;33.67;17.17;;;7.10;99.90;;;;;;5086518;28;20024;-62
2021/01/21 04:58:07;;;;;;;37.58;15.45;;;6.90;99.90;;;;;;5089955;28;20032;-63
2021/01/21 05:00:32;;;;;;;43.40;16.60;;;6.90;99.90;;;;;;5088607;28;20020;-62
2021/01/21 05:03:00;;;;;;;50.03;18.85;;;6.90;99.90;;;;;;5091465;28;20020;-62
2021/01/21 05:05:26;;;;;;;34.88;16.65;;;6.90;99.90;;;;;;5083978;28;20099;-63
2021/01/21 05:07:52;;;;;;;35.58;15.60;;;7.10;99.90;;;;;;5071102;28;20150;-63
2021/01/21 05:10:20;;;;;;;35.70;15.27;;;7.20;99.90;;;;;;5082275;28;20013;-63
2021/01/21 05:12:45;;;;;;;31.73;14.80;;;7.10;99.90;;;;;;5081820;28;20020;-62
2021/01/21 05:15:11;;;;;;;29.48;15.70;;;7.10;99.90;;;;;;5089245;28;20035;-62
2021/01/21 05:17:37;;;;;;;38.30;15.23;;;7.00;99.90;;;;;;5090441;28;20036;-62
2021/01/21 05:20:04;;;;;;;26.10;14.65;;;7.00;99.90;;;;;;5088254;28;20035;-62
2021/01/21 05:22:29;;;;;;;37.88;14.07;;;7.00;99.90;;;;;;5090331;28;20506;-63
2021/01/21 05:24:55;;;;;;;32.05;14.55;;;7.10;99.90;;;;;;5084730;28;20031;-63
2021/01/21 05:27:21;;;;;;;33.20;15.85;;;7.20;99.90;;;;;;5074259;28;20152;-63
2021/01/21 05:29:48;;;;;;;30.35;15.75;;;7.20;99.90;;;;;;5077231;28;20055;-63
2021/01/21 05:32:15;;;;;;;36.05;15.52;;;7.00;99.90;;;;;;5075193;28;20103;-64
2021/01/21 05:34:43;;;;;;;36.10;15.07;;;6.90;99.90;;;;;;5080067;28;20022;-63
2021/01/21 05:37:13;;;;;;;28.83;14.35;;;7.20;99.90;;;;;;5089916;28;20035;-63
2021/01/21 05:39:42;;;;;;;35.25;15.25;;;7.40;99.90;;;;;;5083917;28;20068;-62
2021/01/21 05:42:08;;;;;;;34.25;15.77;;;7.20;99.90;;;;;;5086894;28;20111;-62
2021/01/21 05:44:34;;;;;;;36.58;14.65;;;7.20;99.90;;;;;;5088181;28;20024;-63
2021/01/21 05:47:04;;;;;;;35.17;15.55;;;7.30;99.90;;;;;;5089974;28;20028;-62
2021/01/21 05:49:30;;;;;;;28.80;14.43;;;7.20;99.90;;;;;;5084193;28;20020;-63
2021/01/21 05:51:57;;;;;;;35.53;13.88;;;7.20;99.90;;;;;;5077529;28;20039;-63
2021/01/21 05:54:28;;;;;;;30.05;14.75;;;7.40;99.90;;;;;;5073965;28;20070;-62
2021/01/21 05:56:55;;;;;;;29.98;15.07;;;7.20;99.90;;;;;;5089816;28;20045;-62
2021/01/21 05:59:25;;;;;;;32.40;13.98;;;7.30;99.90;;;;;;5088924;28;20063;-63
2021/01/21 06:01:54;;;;;;;29.88;13.98;;;7.20;99.90;;;;;;5085638;28;20024;-63
2021/01/21 06:04:25;;;;;;;26.23;13.90;;;7.30;99.90;;;;;;5088468;28;20232;-63
2021/01/21 06:06:52;;;;;;;29.60;13.45;;;7.20;99.90;;;;;;5089675;28;20013;-62
2021/01/21 06:09:25;;;;;;;33.45;13.73;;;7.30;99.90;;;;;;5088277;28;20020;-63
2021/01/21 06:11:52;;;;;;;26.42;12.35;;;7.20;99.90;;;;;;5088781;28;20059;-63
2021/01/21 06:14:23;;;;;;;24.63;12.48;;;7.40;99.90;;;;;;5088155;28;20156;-63
2021/01/21 06:16:50;;;;;;;24.90;13.57;;;7.40;99.90;;;;;;5089184;28;20063;-62
2021/01/21 06:19:15;;;;;;;25.38;12.60;;;7.40;99.90;;;;;;5088350;28;20400;-63
2021/01/21 06:21:47;;;;;;;24.20;13.10;;;7.20;99.90;;;;;;5089662;28;20016;-64
2021/01/21 06:24:15;;;;;;;28.85;13.35;;;7.10;99.90;;;;;;5084864;28;20694;-63
2021/01/21 06:26:46;;;;;;;35.17;13.00;;;7.30;99.90;;;;;;5080390;28;20044;-63
2021/01/21 06:29:16;;;;;;;33.33;13.70;;;7.30;99.90;;;;;;5076710;28;20498;-63
2021/01/21 06:31:43;;;;;;;24.50;12.63;;;7.20;99.90;;;;;;5082833;28;20251;-63
2021/01/21 06:34:15;;;;;;;37.00;13.57;;;7.20;99.90;;;;;;5076594;28;20032;-62
2021/01/21 06:36:43;;;;;;;28.00;13.90;;;7.10;99.90;;;;;;5082528;28;20017;-63
2021/01/21 06:39:19;;;;;;;26.85;12.93;;;7.00;99.90;;;;;;5089650;28;20036;-62
2021/01/21 06:41:47;;;;;;;27.63;12.93;;;7.50;99.90;;;;;;5091674;28;20008;-62
2021/01/21 06:44:15;;;;;;;19.15;11.38;;;7.10;99.90;;;;;;5091452;28;20054;-62
2021/01/21 06:46:44;;;;;;;21.83;13.52;;;6.90;99.90;;;;;;5091865;28;20031;-61
2021/01/21 06:49:13;;;;;;;28.88;13.45;;;6.90;99.90;;;;;;5091291;28;20024;-62
2021/01/21 06:51:46;;;;;;;22.33;12.93;;;6.80;99.90;;;;;;5091916;28;20047;-63
2021/01/21 06:54:13;;;;;;;24.52;13.82;;;6.80;99.90;;;;;;5091864;28;20040;-64
2021/01/21 06:56:39;;;;;;;22.58;12.10;;;6.40;99.90;;;;;;5090080;28;20024;-62
2021/01/21 06:59:04;;;;;;;25.20;14.23;;;6.40;99.90;;;;;;5088989;28;20066;-62
2021/01/21 07:01:30;;;;;;;25.88;14.75;;;6.50;99.90;;;;;;5092682;28;20078;-62
2021/01/21 07:03:56;;;;;;;23.35;13.18;;;6.70;99.90;;;;;;5090188;28;20024;-62
2021/01/21 07:06:22;;;;;;;20.92;12.18;;;6.70;99.90;;;;;;5094718;28;20055;-62
2021/01/21 07:09:07;;;;;;;23.15;13.05;;;6.60;99.90;;;;;;5091027;28;20051;-63
2021/01/21 07:11:34;;;;;;;28.85;14.02;;;6.60;99.90;;;;;;5085039;28;20028;-62
2021/01/21 07:14:00;;;;;;;25.33;15.15;;;6.40;99.90;;;;;;5089519;28;20028;-62
2021/01/21 07:16:26;;;;;;;28.35;16.77;;;6.50;99.90;;;;;;5081527;28;20027;-63
2021/01/21 07:18:54;;;;;;;23.25;15.48;;;6.60;99.90;;;;;;5075115;28;20016;-62
2021/01/21 07:21:24;;;;;;;28.00;14.52;;;6.80;99.90;;;;;;5082099;28;20031;-62
2021/01/21 07:23:52;;;;;;;20.92;13.98;;;6.60;99.90;;;;;;5075826;28;20090;-62
2021/01/21 07:26:28;;;;;;;21.90;14.73;;;6.50;99.90;;;;;;5082060;28;20028;-62
2021/01/21 07:29:07;;;;;;;26.13;14.98;;;6.40;99.90;;;;;;5075473;28;20040;-63
2021/01/21 07:31:56;;;;;;;31.15;16.13;;;6.50;99.90;;;;;;5081931;28;20021;-62
2021/01/21 07:34:27;;;;;;;27.95;16.33;;;6.60;99.90;;;;;;5071571;28;20055;-61
2021/01/21 07:37:12;;;;;;;30.83;15.70;;;6.60;99.90;;;;;;5084921;28;20357;-62
2021/01/21 07:39:48;;;;;;;31.30;15.20;;;6.90;99.90;;;;;;5086713;28;20036;-62
2021/01/21 07:42:14;;;;;;;29.58;14.95;;;7.00;99.90;;;;;;5077832;28;20021;-62
2021/01/21 07:45:18;;;;;;;33.78;14.68;;;7.00;99.90;;;;;;5077637;28;20047;-62
2021/01/21 07:47:48;;;;;;;28.20;14.98;;;7.00;99.90;;;;;;5067548;28;20048;-62
2021/01/21 07:50:16;;;;;;;23.98;14.35;;;7.10;99.90;;;;;;5082301;28;20484;-63
2021/01/21 07:52:47;;;;;;;25.73;14.07;;;7.10;99.90;;;;;;5073703;28;20024;-62
2021/01/21 07:55:13;;;;;;;32.03;14.85;;;7.20;99.90;;;;;;5081924;28;20040;-62
2021/01/21 07:57:40;;;;;;;23.67;13.98;;;7.30;99.90;;;;;;5074056;28;20056;-62
2021/01/21 08:00:10;;;;;;;26.65;14.23;;;7.30;99.90;;;;;;5080517;28;20020;-62
2021/01/21 08:02:49;;;;;;;30.10;14.98;;;7.20;99.90;;;;;;5091713;28;20059;-62
2021/01/21 08:05:20;;;;;;;22.95;14.15;;;7.20;99.90;;;;;;5083518;28;20358;-63
2021/01/21 08:07:47;;;;;;;24.38;13.55;;;7.30;99.90;;;;;;5071207;28;20020;-62
2021/01/21 08:10:14;;;;;;;21.25;14.05;;;7.40;99.90;;;;;;5081015;28;20028;-62
2021/01/21 08:12:40;;;;;;;25.65;13.20;;;7.40;99.90;;;;;;5073155;28;20029;-62
2021/01/21 08:15:15;;;;;;;28.10;13.13;;;7.40;99.90;;;;;;5083389;28;20033;-63
2021/01/21 08:17:41;;;;;;;26.42;12.65;;;7.40;99.90;;;;;;5086861;28;20035;-65
2021/01/21 08:20:09;;;;;;;23.33;12.65;;;7.40;99.90;;;;;;5083626;28;20393;-63
2021/01/21 08:22:54;;;;;;;26.63;13.27;;;7.50;99.90;;;;;;5091676;28;20079;-62
2021/01/21 08:25:21;;;;;;;21.73;12.20;;;7.60;99.90;;;;;;5085607;28;20021;-62
2021/01/21 08:27:48;;;;;;;28.05;13.20;;;7.60;99.90;;;;;;5072396;28;20025;-62
2021/01/21 08:30:28;;;;;;;26.13;13.02;;;7.70;99.90;;;;;;5081414;28;20557;-62
2021/01/21 08:33:17;;;;;;;19.52;12.07;;;7.70;99.90;;;;;;5071771;28;20481;-62
2021/01/21 08:35:44;;;;;;;21.40;11.80;;;7.60;99.90;;;;;;5083106;28;20445;-62
2021/01/21 08:38:13;;;;;;;20.52;11.63;;;7.80;99.90;;;;;;5071557;28;20079;-62
2021/01/21 08:40:40;;;;;;;20.83;12.35;;;7.70;99.90;;;;;;5082918;28;20044;-63
2021/01/21 08:43:07;;;;;;;21.33;11.73;;;7.70;99.90;;;;;;5071563;28;20071;-62
2021/01/21 08:45:33;;;;;;;20.10;12.00;;;7.70;99.90;;;;;;5076600;28;20126;-62
2021/01/21 08:47:59;;;;;;;28.67;12.88;;;7.80;99.90;;;;;;5090050;28;20484;-62
2021/01/21 08:50:37;;;;;;;22.55;12.32;;;7.80;99.90;;;;;;5083963;28;20024;-62
2021/01/21 08:53:10;;;;;;;26.33;12.68;;;7.90;99.90;;;;;;5081593;28;20169;-62
2021/01/21 08:55:44;;;;;;;25.40;12.77;;;8.00;99.90;;;;;;5084641;28;20020;-63
2021/01/21 08:58:13;;;;;;;25.45;12.80;;;8.00;99.90;;;;;;5091047;28;20176;-62
2021/01/21 09:00:57;;;;;;;24.85;13.15;;;8.10;99.90;;;;;;5083010;28;20043;-62
2021/01/21 09:03:36;;;;;;;22.02;12.68;;;8.10;99.90;;;;;;5071324;28;20457;-62
2021/01/21 09:06:07;;;;;;;27.20;12.10;;;8.10;99.90;;;;;;5080269;28;20028;-62
2021/01/21 09:08:43;;;;;;;26.92;12.02;;;8.30;99.90;;;;;;5089245;28;20020;-62
2021/01/21 09:11:25;;;;;;;22.40;13.13;;;8.50;99.90;;;;;;5080597;28;20008;-62
2021/01/21 09:13:50;;;;;;;21.65;12.95;;;8.60;99.90;;;;;;5088261;28;20032;-62
2021/01/21 09:16:16;;;;;;;26.60;13.18;;;8.60;99.90;;;;;;5086148;28;20025;-62
2021/01/21 09:18:46;;;;;;;22.20;11.45;;;8.80;99.90;;;;;;5086943;28;20422;-63
2021/01/21 09:21:16;;;;;;;24.00;11.88;;;8.80;99.90;;;;;;5083591;28;20021;-62
2021/01/21 09:23:41;;;;;;;21.77;12.82;;;8.90;99.90;;;;;;5088529;28;20020;-62
2021/01/21 09:26:12;;;;;;;24.20;13.38;;;9.00;99.90;;;;;;5080646;28;20032;-62
2021/01/21 09:28:55;;;;;;;21.52;12.02;;;9.10;99.90;;;;;;5071571;28;20023;-62
2021/01/21 09:31:22;;;;;;;22.52;11.88;;;9.20;99.90;;;;;;5079432;28;20664;-62
2021/01/21 09:33:51;;;;;;;21.10;12.70;;;9.40;99.90;;;;;;5072585;28;20017;-62
2021/01/21 09:36:17;;;;;;;21.50;12.38;;;9.40;99.90;;;;;;5079166;28;20024;-62
2021/01/21 09:38:44;;;;;;;22.30;12.38;;;9.60;99.90;;;;;;5071980;28;20035;-61
2021/01/21 09:41:10;;;;;;;22.98;12.32;;;9.70;99.90;;;;;;5080123;28;20024;-62
2021/01/21 09:43:35;;;;;;;24.67;10.55;;;9.90;99.90;;;;;;5070876;28;20431;-62
2021/01/21 09:46:01;;;;;;;27.75;11.02;;;10.00;99.90;;;;;;5081122;28;20574;-62
2021/01/21 09:48:27;;;;;;;21.52;10.65;;;10.00;99.90;;;;;;5070555;28;20028;-62
2021/01/21 09:50:56;;;;;;;22.00;11.45;;;10.10;99.90;;;;;;5081269;28;20082;-62
2021/01/21 09:53:21;;;;;;;20.15;10.70;;;10.40;99.90;;;;;;5070340;28;20592;-62
2021/01/21 09:55:47;;;;;;;26.85;11.10;;;10.60;99.90;;;;;;5082968;28;20056;-62
2021/01/21 09:58:14;;;;;;;22.73;10.93;;;10.80;99.90;;;;;;5074260;28;20032;-62
2021/01/21 10:00:40;;;;;;;26.50;10.82;;;10.90;99.90;;;;;;5080560;28;20085;-62
2021/01/21 10:03:05;;;;;;;19.65;9.32;;;11.30;99.90;;;;;;5070172;28;20028;-62
2021/01/21 10:05:31;;;;;;;19.75;7.70;;;11.70;99.90;;;;;;5081173;28;20091;-62
2021/01/21 10:07:56;;;;;;;21.05;7.75;;;11.70;99.90;;;;;;5070078;28;20032;-62
2021/01/21 10:10:22;;;;;;;17.27;7.65;;;11.80;99.90;;;;;;5082022;28;20103;-62
2021/01/21 10:12:48;;;;;;;20.08;7.18;;;11.80;99.90;;;;;;5080664;28;20098;-62
2021/01/21 10:15:15;;;;;;;15.95;7.68;;;11.90;99.90;;;;;;5087267;28;20016;-62
2021/01/21 10:17:41;;;;;;;16.38;7.22;;;11.90;99.90;;;;;;5087020;28;20115;-62
2021/01/21 10:20:07;;;;;;;13.98;6.45;;;11.90;99.90;;;;;;5087549;28;20103;-62
2021/01/21 10:22:33;;;;;;;16.08;7.32;;;12.10;99.90;;;;;;5086091;28;20039;-62
2021/01/21 10:24:58;;;;;;;21.90;7.78;;;12.20;99.90;;;;;;5083743;28;20096;-62
2021/01/21 10:27:27;;;;;;;18.15;6.97;;;12.30;99.90;;;;;;5073930;28;20020;-62
2021/01/21 10:29:53;;;;;;;19.13;7.22;;;12.40;99.90;;;;;;5076295;28;20032;-62
2021/01/21 10:32:19;;;;;;;19.88;7.30;;;12.50;99.90;;;;;;5074535;28;20031;-62
2021/01/21 10:34:45;;;;;;;18.55;6.78;;;12.50;99.90;;;;;;5075002;28;20028;-63
2021/01/21 10:37:10;;;;;;;19.08;7.22;;;12.50;99.90;;;;;;5068520;28;20052;-63
2021/01/21 10:39:36;;;;;;;18.92;6.78;;;12.70;99.90;;;;;;5073957;28;20033;-63
2021/01/21 10:42:02;;;;;;;19.55;6.65;;;12.60;99.90;;;;;;5086007;28;20046;-63
2021/01/21 10:44:28;;;;;;;17.58;6.82;;;12.60;99.90;;;;;;5087676;28;20587;-66
2021/01/21 10:46:53;;;;;;;19.50;7.25;;;12.60;99.90;;;;;;5089235;28;20028;-67
2021/01/21 10:49:19;;;;;;;19.42;6.75;;;12.60;99.90;;;;;;5087236;28;20180;-68
2021/01/21 10:51:45;;;;;;;14.57;6.50;;;12.80;99.90;;;;;;5089311;28;20391;-67
2021/01/21 10:54:11;;;;;;;19.60;6.75;;;12.80;99.90;;;;;;5087504;28;20025;-67
2021/01/21 10:56:37;;;;;;;14.95;7.63;;;12.90;99.90;;;;;;5089673;28;20027;-68
2021/01/21 10:59:05;;;;;;;19.27;6.90;;;12.90;99.90;;;;;;5086775;28;20484;-68
2021/01/21 11:01:31;;;;;;;15.88;6.57;;;12.90;99.90;;;;;;5078578;28;20054;-67
2021/01/21 11:03:57;;;;;;;20.45;6.93;;;13.20;99.90;;;;;;5071824;28;20024;-67
2021/01/21 11:06:23;;;;;;;16.13;5.60;;;13.10;99.90;;;;;;5078401;28;20045;-68
2021/01/21 11:08:48;;;;;;;21.92;7.13;;;13.00;99.90;;;;;;5073016;28;20165;-68
2021/01/21 11:11:14;;;;;;;14.30;6.00;;;13.10;99.90;;;;;;5079038;28;20043;-67
2021/01/21 11:13:40;;;;;;;15.52;5.57;;;13.00;99.90;;;;;;5072949;28;20032;-67
2021/01/21 11:16:07;;;;;;;17.25;6.88;;;12.80;99.90;;;;;;5083726;28;20013;-68
2021/01/21 11:18:33;;;;;;;15.93;6.50;;;12.80;99.90;;;;;;5073277;28;20040;-68
2021/01/21 11:20:59;;;;;;;17.02;7.10;;;12.90;99.90;;;;;;5084191;28;20031;-68
2021/01/21 11:23:24;;;;;;;15.07;7.25;;;12.90;99.90;;;;;;5073062;28;20025;-67
2021/01/21 11:25:50;;;;;;;21.42;6.90;;;12.90;99.90;;;;;;5084697;28;20391;-68
2021/01/21 11:28:20;;;;;;;21.35;6.13;;;13.00;99.90;;;;;;5073195;28;20036;-67
2021/01/21 11:30:47;;;;;;;14.75;6.32;;;13.10;99.90;;;;;;5083898;28;20424;-68
2021/01/21 11:33:13;;;;;;;22.83;7.90;;;13.30;99.90;;;;;;5073108;28;20047;-67
2021/01/21 11:35:40;;;;;;;26.70;7.07;;;13.30;99.90;;;;;;5084027;28;20028;-67
2021/01/21 11:38:06;;;;;;;15.77;6.65;;;13.40;99.90;;;;;;5072837;28;20111;-68
2021/01/21 11:40:31;;;;;;;13.07;6.90;;;13.20;99.90;;;;;;5084219;28;20137;-67
2021/01/21 11:42:57;;;;;;;17.15;6.95;;;13.30;99.90;;;;;;5072745;28;20028;-67
2021/01/21 11:45:23;;;;;;;20.50;6.55;;;13.30;99.90;;;;;;5082668;28;20047;-67
2021/01/21 11:47:48;;;;;;;20.48;8.55;;;13.40;99.90;;;;;;5073745;28;20077;-66
2021/01/21 11:50:16;;;;;;;29.27;8.60;;;13.50;99.90;;;;;;5081561;28;20123;-68
2021/01/21 11:52:42;;;;;;;18.20;8.10;;;13.60;99.90;;;;;;5074588;28;20456;-68
2021/01/21 11:55:10;;;;;;;21.90;8.25;;;13.60;99.90;;;;;;5087370;28;20476;-66
2021/01/21 11:57:36;;;;;;;23.33;7.82;;;13.50;99.90;;;;;;5092132;28;20036;-67
2021/01/21 12:00:05;;;;;;;13.27;7.03;;;13.30;99.90;;;;;;5088791;28;20028;-67
2021/01/21 12:02:31;;;;;;;23.15;7.38;;;13.40;99.90;;;;;;5075598;28;20025;-66
2021/01/21 12:04:56;;;;;;;15.48;6.43;;;13.40;99.90;;;;;;5060742;28;20058;-67
2021/01/21 12:07:22;;;;;;;21.45;7.03;;;13.40;99.90;;;;;;5076808;28;20028;-67
2021/01/21 12:09:47;;;;;;;20.40;7.20;;;13.30;99.90;;;;;;5079166;28;20016;-67
2021/01/21 12:12:13;;;;;;;20.02;6.85;;;13.30;99.90;;;;;;5078196;28;20025;-67
2021/01/21 12:14:39;;;;;;;21.13;7.32;;;13.50;99.90;;;;;;5076421;28;20051;-67
2021/01/21 12:17:04;;;;;;;16.10;7.05;;;13.60;99.90;;;;;;5079283;28;20413;-66
2021/01/21 12:19:30;;;;;;;15.85;7.38;;;13.70;99.90;;;;;;5079214;28;20475;-72
2021/01/21 12:21:56;;;;;;;16.17;6.55;;;13.50;99.90;;;;;;5102643;28;20019;-70
2021/01/21 12:24:21;;;;;;;18.05;6.25;;;13.60;99.90;;;;;;5093685;28;20031;-68
2021/01/21 12:26:47;;;;;;;16.70;7.20;;;13.60;99.90;;;;;;5083172;28;20094;-69
2021/01/21 12:29:13;;;;;;;14.73;6.30;;;13.70;99.90;;;;;;5090020;28;20020;-66
2021/01/21 12:31:38;;;;;;;17.65;6.88;;;13.80;99.90;;;;;;5084977;28;20020;-66
2021/01/21 12:34:04;;;;;;;20.70;6.13;;;13.60;99.90;;;;;;5086947;28;20530;-66
2021/01/21 12:36:32;;;;;;;12.73;6.13;;;13.70;99.90;;;;;;5080522;28;20024;-66
2021/01/21 12:38:58;;;;;;;19.48;6.60;;;13.70;99.90;;;;;;5074390;28;20051;-66
2021/01/21 12:41:25;;;;;;;16.85;5.82;;;13.70;99.90;;;;;;5092170;28;20111;-67
2021/01/21 12:43:51;;;;;;;18.80;6.97;;;13.80;99.90;;;;;;5090114;28;20024;-67